Arden, Delaware
Current Conditions -  °F | °C
As of 10:51 AM on Sunday 23 Nov 2014 (Local Time) from KILG Reporting Station
Clear Clear  
Wind Chill: 45°   Ceiling: Unl
Heat Index: 47°   Visibility: 10mi
Dew Point: 25°   Wind: 5mph
Humidity: 42%   Direction: 210°SSW
Pressure: 30.23"   Gusts: NA
Location:  39.81°N, 75.49°W
Report Text: KILG 231451Z AUTO 21004KT 10SM CLR 08/M04 A3023 RMK AO2 SLP238 T00831039 58002
Loading
Personal Weather Stations






























Interactive Weather Map New forecast layout! Learn more

10-Day Weather Forecast

Advertisements
Track Severe Weather on mobile